Main page
METAR-TAF:

METAR-TAF

Airports :

Basra International Airport

Basra, Iraq

latitude: 30-32-56N, longitude: 47-39-45E, elevation: 1 m

Current weather observation

The report was made 31 minutes ago, at 21:00 UTC
Wind 6 kt from the South
Temperature 31°C
Humidity 17%
Pressure 1007 hPa
Visibility 10 km or more
no clouds below 1500 m and no cumulonimbus

METAR: ORMM 202100Z 18006KT CAVOK 31/03 Q1007 NOSIG

Time: 00:31 (21:31 UTC)

Forecast

The report was made 4 hours and 31 minutes ago, at 17:00 UTC
Forecast valid from 20 at 18 UTC to 21 at 18 UTC
Wind 3 kt from variable directions
Visibility: 8000 m
Becoming
from 21 at 06 UTC to 21 at 08 UTC
Wind 10 kt from the West/Northwest

TAF: ORMM 201700Z 2018/2118 VRB03KT 8000 NSC BECMG 2106/2108 30010KT

Weather observations and forecasts of more than 4000 airports (METAR and TAF reports).

The available stations are represented by yellow and red dots on the map.

Hover mouse over dot to see the name of the station.

Then click to see weather observations and forecasts.

To change the map : click on the green buttons with a black cross to zoom in, on the green button with a dash to zoom out, or on the green arrows for adjacent maps.


METAR-TAF: